createdAt,value
2018-05-08T00:00:29.632Z,0.00
2018-05-08T00:01:29.606Z,0.00
2018-05-08T00:02:29.656Z,0.00
2018-05-08T00:03:29.569Z,0.00
2018-05-08T00:04:29.541Z,0.00
2018-05-08T00:05:29.511Z,0.00
2018-05-08T00:06:29.506Z,0.00
2018-05-08T00:07:29.484Z,0.00
2018-05-08T00:08:29.449Z,0.00
2018-05-08T00:09:29.436Z,0.00
2018-05-08T00:10:29.489Z,0.00
2018-05-08T00:11:29.392Z,0.00
2018-05-08T00:12:29.382Z,0.00
2018-05-08T00:13:29.405Z,0.00
2018-05-08T00:14:29.359Z,0.00
2018-05-08T00:15:29.442Z,0.00
2018-05-08T00:16:29.284Z,0.00
2018-05-08T00:17:30.355Z,0.00
2018-05-08T00:18:29.319Z,0.00
2018-05-08T00:19:29.216Z,0.00
2018-05-08T00:20:29.213Z,0.00
2018-05-08T00:21:29.167Z,0.00
2018-05-08T00:22:29.168Z,0.00
2018-05-08T00:23:29.142Z,0.00
2018-05-08T00:24:29.103Z,0.00
2018-05-08T00:25:29.109Z,0.00
2018-05-08T00:26:29.060Z,0.00
2018-05-08T00:27:29.052Z,0.00
2018-05-08T00:28:29.143Z,0.00
2018-05-08T00:29:29.013Z,0.00
2018-05-08T00:30:28.986Z,0.00
2018-05-08T00:31:28.988Z,0.00
2018-05-08T00:32:28.965Z,0.00
2018-05-08T00:33:28.949Z,0.00
2018-05-08T00:34:28.894Z,0.00
2018-05-08T00:35:28.897Z,0.00
2018-05-08T00:36:28.958Z,0.00
2018-05-08T00:37:28.851Z,0.00
2018-05-08T00:38:28.863Z,0.00
2018-05-08T00:39:28.829Z,0.00
2018-05-08T00:40:28.868Z,0.00
2018-05-08T00:41:28.743Z,0.00
2018-05-08T00:42:28.792Z,0.00
2018-05-08T00:43:28.769Z,0.00
2018-05-08T00:44:28.672Z,0.00
2018-05-08T00:45:28.667Z,0.00
2018-05-08T00:46:28.647Z,0.00
2018-05-08T00:47:28.603Z,0.00
2018-05-08T00:48:28.593Z,0.00
2018-05-08T00:49:28.569Z,0.00
2018-05-08T00:50:28.546Z,0.00
2018-05-08T00:51:28.525Z,0.00
2018-05-08T00:52:28.495Z,0.00
2018-05-08T00:53:28.471Z,0.00
2018-05-08T00:54:28.460Z,0.00
2018-05-08T00:55:28.444Z,0.00
2018-05-08T00:56:28.417Z,0.00
2018-05-08T00:57:28.393Z,0.00
2018-05-08T00:58:28.368Z,0.00
2018-05-08T00:59:28.361Z,0.00
2018-05-08T01:00:28.329Z,0.00
2018-05-08T01:01:28.313Z,0.00
2018-05-08T01:02:28.293Z,0.00
2018-05-08T01:03:28.277Z,0.00
2018-05-08T01:04:28.323Z,0.00
2018-05-08T01:05:28.231Z,0.00
2018-05-08T01:06:28.272Z,0.00
2018-05-08T01:07:28.250Z,0.00
2018-05-08T01:08:28.295Z,0.00
2018-05-08T01:09:28.153Z,0.00
2018-05-08T01:10:28.155Z,0.00
2018-05-08T01:11:28.095Z,0.00
2018-05-08T01:12:28.167Z,0.00
2018-05-08T01:13:28.045Z,0.00
2018-05-08T01:14:28.127Z,0.00
2018-05-08T01:15:28.027Z,0.00
2018-05-08T01:16:27.995Z,0.00
2018-05-08T01:17:27.962Z,0.00
2018-05-08T01:18:27.950Z,0.00
2018-05-08T01:19:27.924Z,0.00
2018-05-08T01:20:27.899Z,0.00
2018-05-08T01:21:27.875Z,0.00
2018-05-08T01:22:27.855Z,0.00
2018-05-08T01:23:27.842Z,0.00
2018-05-08T01:24:27.808Z,0.00
2018-05-08T01:25:27.799Z,0.00
2018-05-08T01:26:27.779Z,0.00
2018-05-08T01:27:27.746Z,0.00
2018-05-08T01:28:27.750Z,0.00
2018-05-08T01:29:27.697Z,0.00
2018-05-08T01:30:27.687Z,0.00
2018-05-08T01:31:27.659Z,0.00
2018-05-08T01:32:27.657Z,0.00
2018-05-08T01:33:27.627Z,0.00
2018-05-08T01:34:27.600Z,0.00
2018-05-08T01:35:28.642Z,0.00
2018-05-08T01:36:27.565Z,0.00
2018-05-08T01:37:27.527Z,0.00
2018-05-08T01:38:27.500Z,0.00
2018-05-08T01:39:27.471Z,0.00
2018-05-08T01:40:27.461Z,0.00
2018-05-08T01:41:27.428Z,0.00
2018-05-08T01:42:27.410Z,0.00
2018-05-08T01:43:27.396Z,0.00
2018-05-08T01:44:27.391Z,0.00
2018-05-08T01:45:27.376Z,0.00
2018-05-08T01:46:27.336Z,0.00
2018-05-08T01:47:27.300Z,0.00
2018-05-08T01:48:27.287Z,0.00
2018-05-08T01:49:27.266Z,0.00
2018-05-08T01:50:27.296Z,0.00
2018-05-08T01:51:27.224Z,0.00
2018-05-08T01:52:27.321Z,0.00
2018-05-08T01:53:27.189Z,0.00
2018-05-08T01:54:27.164Z,0.00
2018-05-08T01:55:27.155Z,0.00
2018-05-08T01:56:27.115Z,0.00
2018-05-08T01:57:27.083Z,0.00
2018-05-08T01:58:27.062Z,0.00
2018-05-08T01:59:27.048Z,0.00
2018-05-08T02:00:27.028Z,0.00
2018-05-08T02:01:26.998Z,0.00
2018-05-08T02:02:27.086Z,0.00
2018-05-08T02:03:26.953Z,0.00
2018-05-08T02:04:26.993Z,0.00
2018-05-08T02:05:26.914Z,0.00
2018-05-08T02:06:26.878Z,0.00
2018-05-08T02:07:26.871Z,0.00
2018-05-08T02:08:26.861Z,0.00
2018-05-08T02:09:26.815Z,0.00
2018-05-08T02:10:26.817Z,0.00
2018-05-08T02:11:26.794Z,0.00
2018-05-08T02:12:26.761Z,0.00
2018-05-08T02:13:26.841Z,0.00
2018-05-08T02:14:26.717Z,0.00
2018-05-08T02:15:26.702Z,0.00
2018-05-08T02:16:26.682Z,0.00
2018-05-08T02:17:26.674Z,0.00
2018-05-08T02:18:26.627Z,0.00
2018-05-08T02:19:26.593Z,0.00
2018-05-08T02:20:26.603Z,0.00
2018-05-08T02:21:26.562Z,0.00
2018-05-08T02:22:26.528Z,0.00
2018-05-08T02:23:26.501Z,0.00
2018-05-08T02:24:26.500Z,0.00
2018-05-08T02:25:26.477Z,0.00
2018-05-08T02:26:26.441Z,0.00
2018-05-08T02:27:26.430Z,0.00
2018-05-08T02:28:26.432Z,0.00
2018-05-08T02:29:26.441Z,0.00
2018-05-08T02:30:26.363Z,0.00
2018-05-08T02:31:26.349Z,0.00
2018-05-08T02:32:26.317Z,0.00
2018-05-08T02:33:26.281Z,0.00
2018-05-08T02:34:26.265Z,0.00
2018-05-08T02:35:26.247Z,0.00
2018-05-08T02:36:26.222Z,0.00
2018-05-08T02:37:26.205Z,0.00
2018-05-08T02:38:26.186Z,0.00
2018-05-08T02:39:26.159Z,0.00
2018-05-08T02:40:26.141Z,0.00
2018-05-08T02:41:26.141Z,0.00
2018-05-08T02:42:26.110Z,0.00
2018-05-08T02:43:26.063Z,0.00
2018-05-08T02:44:26.039Z,0.00
2018-05-08T02:45:26.023Z,0.00
2018-05-08T02:46:26.013Z,0.00
2018-05-08T02:47:25.966Z,0.00
2018-05-08T02:48:25.962Z,0.00
2018-05-08T02:49:25.944Z,0.00
2018-05-08T02:50:25.938Z,0.00
2018-05-08T02:51:25.900Z,0.00
2018-05-08T02:52:25.979Z,0.00
2018-05-08T02:53:25.980Z,0.00
2018-05-08T02:54:25.829Z,0.00
2018-05-08T02:55:25.796Z,0.00
2018-05-08T02:56:25.845Z,0.00
2018-05-08T02:57:25.757Z,0.00
2018-05-08T02:58:25.757Z,0.00
2018-05-08T02:59:25.726Z,0.00
2018-05-08T03:00:25.701Z,0.00
2018-05-08T03:01:25.737Z,0.00
2018-05-08T03:02:25.645Z,0.00
2018-05-08T03:03:25.636Z,0.00
2018-05-08T03:04:25.623Z,0.00
2018-05-08T03:05:25.588Z,0.00
2018-05-08T03:06:25.571Z,0.00
2018-05-08T03:07:25.608Z,0.00
2018-05-08T03:08:25.522Z,0.00
2018-05-08T03:09:25.495Z,0.00
2018-05-08T03:10:25.459Z,4.00
2018-05-08T03:11:25.439Z,0.00
2018-05-08T03:12:25.415Z,0.00
2018-05-08T03:13:25.397Z,4.00
2018-05-08T03:14:25.465Z,0.00
2018-05-08T03:15:25.349Z,4.00
2018-05-08T03:16:25.413Z,0.00
2018-05-08T03:17:25.320Z,4.00
2018-05-08T03:18:25.331Z,4.00
2018-05-08T03:19:25.252Z,4.00
2018-05-08T03:20:25.240Z,8.00
2018-05-08T03:21:25.218Z,8.00
2018-05-08T03:22:25.228Z,8.00
2018-05-08T03:23:25.174Z,8.00
2018-05-08T03:24:25.855Z,4.00
2018-05-08T03:25:25.148Z,8.00
2018-05-08T03:26:25.182Z,12.00
2018-05-08T03:27:25.110Z,12.00
2018-05-08T03:28:25.202Z,12.00
2018-05-08T03:29:25.057Z,16.00
2018-05-08T03:30:26.148Z,16.00
2018-05-08T03:31:25.003Z,20.00
2018-05-08T03:32:25.036Z,20.00
2018-05-08T03:33:24.934Z,24.00
2018-05-08T03:34:24.943Z,28.00
2018-05-08T03:35:27.002Z,28.00
2018-05-08T03:36:24.886Z,32.00
2018-05-08T03:37:24.940Z,36.00
2018-05-08T03:38:24.843Z,40.00
2018-05-08T03:39:24.932Z,48.00
2018-05-08T03:40:24.785Z,48.00
2018-05-08T03:41:24.826Z,52.00
2018-05-08T03:42:24.794Z,56.00
2018-05-08T03:43:24.712Z,64.00
2018-05-08T03:44:24.697Z,72.00
2018-05-08T03:45:24.681Z,80.00
2018-05-08T03:46:24.655Z,84.00
2018-05-08T03:47:24.689Z,92.00
2018-05-08T03:48:24.608Z,100.00
2018-05-08T03:49:24.682Z,104.00
2018-05-08T03:50:25.599Z,116.00
2018-05-08T03:51:24.542Z,120.00
2018-05-08T03:52:24.511Z,128.00
2018-05-08T03:53:24.506Z,140.00
2018-05-08T03:54:24.469Z,148.00
2018-05-08T03:55:24.469Z,156.00
2018-05-08T03:56:24.425Z,168.00
2018-05-08T03:57:24.472Z,180.00
2018-05-08T03:58:24.389Z,188.00
2018-05-08T03:59:24.386Z,200.00
2018-05-08T04:00:24.341Z,212.00
2018-05-08T04:01:24.321Z,224.00
2018-05-08T04:02:24.304Z,236.00
2018-05-08T04:03:24.267Z,244.00
2018-05-08T04:04:24.244Z,260.00
2018-05-08T04:05:24.227Z,268.00
2018-05-08T04:06:24.230Z,284.00
2018-05-08T04:07:24.182Z,296.00
2018-05-08T04:08:24.244Z,308.00
2018-05-08T04:09:24.155Z,320.00
2018-05-08T04:10:24.207Z,332.00
2018-05-08T04:11:24.141Z,344.00
2018-05-08T04:12:24.066Z,360.00
2018-05-08T04:13:24.039Z,372.00
2018-05-08T04:14:25.084Z,384.00
2018-05-08T04:15:24.032Z,396.00
2018-05-08T04:16:23.984Z,408.00
2018-05-08T04:17:23.958Z,424.00
2018-05-08T04:18:23.944Z,432.00
2018-05-08T04:19:23.905Z,448.00
2018-05-08T04:20:23.962Z,460.00
2018-05-08T04:21:23.868Z,472.00
2018-05-08T04:22:23.835Z,484.00
2018-05-08T04:23:23.838Z,496.00
2018-05-08T04:24:23.855Z,508.00
2018-05-08T04:25:23.780Z,520.00
2018-05-08T04:26:23.748Z,536.00
2018-05-08T04:27:23.795Z,544.00
2018-05-08T04:28:24.732Z,556.00
2018-05-08T04:29:23.713Z,568.00
2018-05-08T04:30:23.757Z,580.00
2018-05-08T04:31:23.666Z,588.00
2018-05-08T04:32:23.629Z,600.00
2018-05-08T04:33:23.607Z,612.00
2018-05-08T04:34:23.570Z,624.00
2018-05-08T04:35:25.663Z,636.00
2018-05-08T04:36:23.529Z,644.00
2018-05-08T04:37:24.532Z,652.00
2018-05-08T04:38:23.492Z,668.00
2018-05-08T04:39:24.529Z,680.00
2018-05-08T04:40:23.494Z,700.00
2018-05-08T04:41:24.466Z,728.00
2018-05-08T04:42:23.398Z,748.00
2018-05-08T04:43:44.390Z,764.00
2018-05-08T04:44:23.381Z,788.00
2018-05-08T04:45:24.384Z,804.00
2018-05-08T04:46:23.314Z,816.00
2018-05-08T04:47:25.403Z,820.00
2018-05-08T04:48:23.264Z,828.00
2018-05-08T04:49:29.021Z,840.00
2018-05-08T04:50:23.214Z,860.00
2018-05-08T04:51:28.929Z,868.00
2018-05-08T04:52:23.164Z,872.00
2018-05-08T04:53:23.228Z,876.00
2018-05-08T04:54:23.105Z,868.00
2018-05-08T04:55:34.007Z,868.00
2018-05-08T04:56:23.069Z,872.00
2018-05-08T04:57:44.115Z,880.00
2018-05-08T04:58:23.023Z,900.00
2018-05-08T04:59:35.953Z,916.00
2018-05-08T05:00:23.001Z,940.00
2018-05-08T05:01:34.974Z,964.00
2018-05-08T05:02:22.935Z,980.00
2018-05-08T05:03:25.047Z,992.00
2018-05-08T05:04:22.890Z,992.00
2018-05-08T05:05:28.528Z,992.00
2018-05-08T05:06:22.894Z,996.00
2018-05-08T05:07:28.546Z,984.00
2018-05-08T05:08:22.801Z,984.00
2018-05-08T05:09:28.452Z,984.00
2018-05-08T05:10:22.746Z,984.00
2018-05-08T05:11:39.635Z,988.00
2018-05-08T05:12:22.696Z,988.00
2018-05-08T05:13:22.710Z,992.00
2018-05-08T05:14:24.706Z,996.00
2018-05-08T05:15:22.660Z,1004.00
2018-05-08T05:16:27.446Z,1008.00
2018-05-08T05:17:22.592Z,1008.00
2018-05-08T05:18:22.660Z,1012.00
2018-05-08T05:19:22.591Z,1016.00
2018-05-08T05:20:50.539Z,1020.00
2018-05-08T05:21:22.509Z,1024.00
2018-05-08T05:22:23.548Z,1028.00
2018-05-08T05:23:22.443Z,1036.00
2018-05-08T05:24:22.582Z,1040.00
2018-05-08T05:25:22.400Z,1040.00
2018-05-08T05:26:51.014Z,1040.00
2018-05-08T05:27:22.386Z,1044.00
2018-05-08T05:28:22.329Z,1048.00
2018-05-08T05:29:23.346Z,1048.00
2018-05-08T05:30:22.286Z,1056.00
2018-05-08T05:31:35.153Z,1064.00
2018-05-08T05:32:22.302Z,1064.00
2018-05-08T05:33:28.068Z,1064.00
2018-05-08T05:34:22.201Z,1072.00
2018-05-08T05:35:37.000Z,1076.00
2018-05-08T05:36:22.172Z,1076.00
2018-05-08T05:37:26.996Z,1080.00
2018-05-08T05:38:22.099Z,1084.00
2018-05-08T05:39:23.106Z,1092.00
2018-05-08T05:40:22.039Z,1088.00
2018-05-08T06:27:47.184Z,1264.00
2018-05-08T06:28:32.407Z,1268.00
2018-05-08T06:30:24.592Z,1256.00
2018-05-08T06:31:24.459Z,1252.00
2018-05-08T06:32:24.515Z,1256.00
2018-05-08T06:33:24.406Z,1256.00
2018-05-08T06:34:24.396Z,1260.00
2018-05-08T06:35:24.451Z,1268.00
2018-05-08T06:36:24.341Z,1300.00
2018-05-08T06:37:24.371Z,1388.00
2018-05-08T06:38:24.305Z,1384.00
2018-05-08T06:39:24.413Z,1348.00
2018-05-08T06:40:24.273Z,1392.00
2018-05-08T06:41:24.291Z,1464.00
2018-05-08T06:42:24.235Z,1556.00
2018-05-08T06:43:26.299Z,1520.00
2018-05-08T06:44:24.275Z,1324.00
2018-05-08T06:45:24.233Z,1252.00
2018-05-08T06:46:24.115Z,1268.00
2018-05-08T06:47:24.152Z,1296.00
2018-05-08T06:48:24.084Z,1312.00
2018-05-08T06:49:25.207Z,1272.00
2018-05-08T06:50:24.033Z,1248.00
2018-05-08T06:51:25.132Z,1240.00
2018-05-08T06:52:23.973Z,1252.00
2018-05-08T06:53:24.009Z,1268.00
2018-05-08T06:54:24.338Z,1264.00
2018-05-08T06:55:25.967Z,1252.00
2018-05-08T06:56:24.410Z,1248.00
2018-05-08T06:57:23.934Z,1248.00
2018-05-08T06:58:23.831Z,1252.00
2018-05-08T06:59:23.813Z,1244.00
2018-05-08T07:00:23.782Z,1244.00
2018-05-08T07:01:23.761Z,1272.00
2018-05-08T07:02:23.747Z,1296.00
2018-05-08T07:03:23.801Z,1272.00
2018-05-08T07:04:23.752Z,1248.00
2018-05-08T07:05:23.686Z,1248.00
2018-05-08T07:06:23.673Z,1268.00
2018-05-08T07:07:23.629Z,1280.00
2018-05-08T07:08:23.673Z,1292.00
2018-05-08T07:09:23.596Z,1276.00
2018-05-08T07:10:23.560Z,1264.00
2018-05-08T07:11:23.600Z,1288.00
2018-05-08T07:12:23.581Z,1236.00
2018-05-08T07:13:23.597Z,1228.00
2018-05-08T07:14:23.446Z,1232.00
2018-05-08T07:15:23.432Z,1232.00
2018-05-08T07:16:23.413Z,1232.00
2018-05-08T07:17:23.391Z,1232.00
2018-05-08T07:18:23.366Z,1232.00
2018-05-08T07:19:23.439Z,1228.00
2018-05-08T07:20:23.319Z,1240.00
2018-05-08T07:21:23.298Z,1236.00
2018-05-08T07:22:23.273Z,1248.00
2018-05-08T07:23:23.263Z,1228.00
2018-05-08T07:24:24.294Z,1236.00
2018-05-08T07:25:23.193Z,1236.00
2018-05-08T07:26:23.185Z,1240.00
2018-05-08T07:27:23.151Z,1244.00
2018-05-08T07:28:23.128Z,1240.00
2018-05-08T07:29:23.200Z,1248.00
2018-05-08T07:30:23.080Z,1244.00
2018-05-08T07:31:23.066Z,1248.00
2018-05-08T07:32:23.068Z,1252.00
2018-05-08T07:33:23.020Z,1244.00
2018-05-08T07:34:23.023Z,1248.00
2018-05-08T07:35:22.966Z,1248.00
2018-05-08T07:36:23.072Z,1256.00
2018-05-08T07:37:22.921Z,1232.00
2018-05-08T07:38:23.014Z,1252.00
2018-05-08T07:39:22.918Z,1256.00
2018-05-08T07:40:22.864Z,1256.00
2018-05-08T07:41:22.831Z,1264.00
2018-05-08T07:42:22.827Z,1260.00
2018-05-08T07:43:22.789Z,1264.00
2018-05-08T07:44:22.765Z,1268.00
2018-05-08T07:45:22.754Z,1260.00
2018-05-08T07:46:22.716Z,1268.00
2018-05-08T07:47:22.678Z,1272.00
2018-05-08T07:48:22.665Z,1272.00
2018-05-08T07:49:22.641Z,1272.00
2018-05-08T07:50:22.746Z,1284.00
2018-05-08T07:51:22.624Z,1256.00
2018-05-08T07:52:22.652Z,1280.00
2018-05-08T07:53:22.545Z,1284.00
2018-05-08T07:54:22.645Z,1280.00
2018-05-08T07:55:22.524Z,1272.00
2018-05-08T07:56:22.573Z,1288.00
2018-05-08T07:57:22.453Z,1288.00
2018-05-08T07:58:22.475Z,1288.00
2018-05-08T07:59:22.416Z,1280.00
2018-05-08T08:00:22.587Z,1288.00
2018-05-08T08:01:22.362Z,1288.00
2018-05-08T08:02:22.416Z,1296.00
2018-05-08T08:03:22.391Z,1292.00
2018-05-08T08:04:22.308Z,1308.00
2018-05-08T08:05:22.293Z,1304.00
2018-05-08T08:06:22.333Z,1312.00
2018-05-08T08:07:22.215Z,1316.00
2018-05-08T08:08:22.344Z,1312.00
2018-05-08T08:09:22.178Z,1288.00
2018-05-08T08:10:23.342Z,1340.00
2018-05-08T08:11:22.139Z,1316.00
2018-05-08T08:12:23.279Z,1316.00
2018-05-08T08:13:22.295Z,1320.00
2018-05-08T08:14:22.180Z,1324.00
2018-05-08T08:15:22.035Z,1324.00
2018-05-08T08:16:22.092Z,1328.00
2018-05-08T08:17:21.998Z,1336.00
2018-05-08T08:18:22.112Z,1340.00
2018-05-08T08:19:21.975Z,1344.00
2018-05-08T08:20:21.924Z,1344.00
2018-05-08T08:21:21.934Z,1352.00
2018-05-08T08:22:21.884Z,1352.00
2018-05-08T08:23:21.882Z,1368.00
2018-05-08T08:24:21.934Z,1352.00
2018-05-08T08:25:21.803Z,1356.00
2018-05-08T08:26:21.882Z,1356.00
2018-05-08T08:27:21.765Z,1360.00
2018-05-08T08:28:21.774Z,1368.00
2018-05-08T08:29:21.719Z,1364.00
2018-05-08T09:02:39.177Z,1472.00
2018-05-08T09:03:39.142Z,1476.00
2018-05-08T09:04:39.154Z,1484.00
2018-05-08T09:05:39.165Z,1480.00
2018-05-08T09:06:39.064Z,1488.00
2018-05-08T09:07:39.070Z,1468.00
2018-05-08T09:08:39.005Z,1500.00
2018-05-08T09:09:39.095Z,1504.00
2018-05-08T09:10:38.979Z,1508.00
2018-05-08T09:11:38.947Z,1552.00
2018-05-08T09:12:38.927Z,1504.00
2018-05-08T09:13:39.037Z,1508.00
2018-05-08T09:14:38.865Z,1504.00
2018-05-08T09:15:39.996Z,1504.00
2018-05-08T09:16:38.857Z,1504.00
2018-05-08T09:17:38.826Z,1512.00
2018-05-08T09:18:38.804Z,1512.00
2018-05-08T09:19:40.876Z,1512.00
2018-05-08T09:20:38.746Z,1516.00
2018-05-08T09:21:38.766Z,1520.00
2018-05-08T09:22:38.694Z,1532.00
2018-05-08T09:23:38.806Z,1544.00
2018-05-08T09:24:38.648Z,1544.00
2018-05-08T09:25:38.685Z,1620.00
2018-05-08T09:26:38.615Z,1552.00
2018-05-08T09:27:39.634Z,1552.00
2018-05-08T09:28:38.602Z,1556.00
2018-05-08T09:29:40.648Z,1536.00
2018-05-08T09:30:38.542Z,1568.00
2018-05-08T09:31:38.608Z,1572.00
2018-05-08T09:32:38.467Z,1584.00
2018-05-08T09:33:38.522Z,1584.00
2018-05-08T09:34:38.427Z,1584.00
2018-05-08T09:35:38.536Z,1588.00
2018-05-08T09:36:38.394Z,1612.00
2018-05-08T09:37:39.467Z,1608.00
2018-05-08T09:38:38.344Z,1600.00
2018-05-08T09:39:38.395Z,1604.00
2018-05-08T09:40:38.303Z,1604.00
2018-05-08T09:41:38.410Z,1612.00
2018-05-08T09:42:38.272Z,1620.00
2018-05-08T09:43:38.301Z,1620.00
2018-05-08T09:44:38.207Z,1620.00
2018-05-08T09:45:38.328Z,1628.00
2018-05-08T09:46:38.160Z,1636.00
2018-05-08T09:47:38.241Z,1636.00
2018-05-08T09:48:38.124Z,1636.00
2018-05-08T09:49:38.106Z,1640.00
2018-05-08T09:50:38.087Z,1640.00
2018-05-08T09:51:38.162Z,1652.00
2018-05-08T09:52:38.070Z,1648.00
2018-05-08T09:53:38.078Z,1648.00
2018-05-08T09:54:37.989Z,1648.00
2018-05-08T09:55:38.092Z,1640.00
2018-05-08T09:56:37.960Z,1612.00
2018-05-08T09:57:37.992Z,1644.00
2018-05-08T09:58:37.910Z,1648.00
2018-05-08T09:59:38.013Z,1656.00
2018-05-08T10:00:37.866Z,1676.00
2018-05-08T10:01:37.933Z,1680.00
2018-05-08T10:02:37.829Z,1676.00
2018-05-08T10:03:37.926Z,1676.00
2018-05-08T10:04:37.782Z,1676.00
2018-05-08T10:05:37.845Z,1700.00
2018-05-08T10:06:37.763Z,1684.00
2018-05-08T10:07:37.820Z,1684.00
2018-05-08T10:08:37.694Z,1688.00
2018-05-08T10:09:37.686Z,1700.00
2018-05-08T10:10:37.726Z,1672.00
2018-05-08T10:11:37.629Z,1700.00
2018-05-08T10:12:37.607Z,1704.00
2018-05-08T10:13:37.620Z,1708.00
2018-05-08T10:14:37.692Z,1716.00
2018-05-08T10:15:37.532Z,1716.00
2018-05-08T10:16:37.624Z,1724.00
2018-05-08T10:17:37.520Z,1732.00
2018-05-08T10:18:37.625Z,1736.00
2018-05-08T10:19:37.467Z,1704.00
2018-05-08T10:20:37.639Z,1740.00
2018-05-08T10:21:37.420Z,1740.00
2018-05-08T10:22:37.549Z,1744.00
2018-05-08T10:23:37.382Z,1748.00
2018-05-08T10:24:37.463Z,1752.00
2018-05-08T10:25:37.324Z,1756.00
2018-05-08T10:26:37.367Z,1756.00
2018-05-08T10:27:37.291Z,1760.00
2018-05-08T10:28:37.399Z,1764.00
2018-05-08T10:29:37.261Z,1756.00
2018-05-08T10:30:37.297Z,1756.00
2018-05-08T10:31:37.244Z,1768.00
2018-05-08T10:32:37.354Z,1784.00
2018-05-08T10:33:37.158Z,1784.00
2018-05-08T10:34:37.220Z,1784.00
2018-05-08T10:35:37.131Z,1780.00
2018-05-08T10:36:37.235Z,1800.00
2018-05-08T10:37:37.078Z,1784.00
2018-05-08T10:38:38.208Z,1784.00
2018-05-08T10:39:37.046Z,1888.00
2018-05-08T10:40:37.196Z,1772.00
2018-05-08T10:41:36.998Z,1768.00
2018-05-08T10:42:37.150Z,1772.00
2018-05-08T10:43:36.947Z,1772.00
2018-05-08T10:44:37.088Z,1780.00
2018-05-08T10:45:36.913Z,1788.00
2018-05-08T10:46:36.996Z,1800.00
2018-05-08T10:47:36.864Z,1796.00
2018-05-08T10:48:37.034Z,1800.00
2018-05-08T10:49:36.915Z,1800.00
2018-05-08T10:50:36.997Z,1796.00
2018-05-08T10:51:36.786Z,1792.00
2018-05-08T10:52:36.832Z,1792.00
2018-05-08T10:53:36.743Z,1784.00
2018-05-08T10:54:36.846Z,1780.00
2018-05-08T10:55:36.740Z,1788.00
2018-05-08T10:56:36.768Z,1784.00
2018-05-08T10:57:36.671Z,1776.00
2018-05-08T10:58:36.793Z,1780.00
2018-05-08T10:59:36.614Z,1772.00
2018-05-08T11:00:36.682Z,1784.00
2018-05-08T11:01:36.601Z,1792.00
2018-05-08T11:02:36.710Z,1800.00
2018-05-08T11:03:36.530Z,1804.00
2018-05-08T11:04:43.402Z,1812.00
2018-05-08T11:05:36.500Z,1812.00
2018-05-08T11:06:36.636Z,1800.00
2018-05-08T11:07:36.475Z,1908.00
2018-05-08T11:08:36.511Z,1804.00
2018-05-08T11:09:36.424Z,1792.00
2018-05-08T11:10:47.278Z,1788.00
2018-05-08T11:11:36.389Z,1788.00
2018-05-08T11:12:36.429Z,1784.00
2018-05-08T11:13:36.342Z,1784.00
2018-05-08T11:14:37.409Z,1792.00
2018-05-08T11:15:36.287Z,1856.00
2018-05-08T11:16:43.444Z,1800.00
2018-05-08T11:17:36.258Z,1800.00
2018-05-08T11:19:08.340Z,1984.00
2018-05-08T11:19:36.225Z,1800.00
2018-05-08T11:20:36.232Z,1800.00
2018-05-08T11:31:38.864Z,1820.00
2018-05-08T11:32:07.375Z,1820.00
2018-05-08T11:32:56.750Z,1824.00
2018-05-08T11:34:18.902Z,1824.00
2018-05-08T11:34:56.737Z,1824.00
2018-05-08T11:35:56.698Z,1828.00
2018-05-08T11:37:02.371Z,1828.00
2018-05-08T11:37:56.657Z,1840.00
2018-05-08T11:38:56.667Z,2128.00
2018-05-08T11:39:56.619Z,1848.00
2018-05-08T11:40:58.758Z,1852.00
2018-05-08T11:41:56.608Z,1900.00
2018-05-08T13:07:12.032Z,2104.00
2018-05-08T13:08:22.010Z,1824.00
2018-05-08T13:09:09.046Z,1820.00
2018-05-08T13:10:10.197Z,1820.00
2018-05-08T13:11:09.027Z,1816.00
2018-05-08T13:12:11.126Z,1812.00
2018-05-08T13:13:08.943Z,1788.00
2018-05-08T13:14:14.006Z,1804.00
2018-05-08T13:15:08.892Z,1808.00
2018-05-08T13:16:20.982Z,1800.00
2018-05-08T13:17:08.871Z,1796.00
2018-05-08T13:18:21.607Z,1796.00
2018-05-08T13:19:08.818Z,1792.00
2018-05-08T13:20:09.845Z,1792.00
2018-05-08T13:21:08.806Z,1792.00
2018-05-08T13:22:10.901Z,1796.00
2018-05-08T13:23:08.781Z,1816.00
2018-05-08T13:24:09.975Z,1784.00
2018-05-08T13:25:08.717Z,1788.00
2018-05-08T13:26:13.486Z,1792.00
2018-05-08T13:27:08.690Z,1788.00
2018-05-08T13:28:23.533Z,1784.00
2018-05-08T13:29:08.637Z,1784.00
2018-05-08T13:30:10.792Z,1736.00
2018-05-08T13:31:08.656Z,1780.00
2018-05-08T13:32:10.795Z,1752.00
2018-05-08T13:33:08.585Z,1776.00
2018-05-08T13:34:29.714Z,1768.00
2018-05-08T13:35:08.508Z,1780.00
2018-05-08T13:36:08.495Z,1780.00
2018-05-08T13:37:09.678Z,1784.00
2018-05-08T13:38:08.478Z,1756.00
2018-05-08T13:39:25.616Z,1784.00
2018-05-08T13:40:08.414Z,1764.00
2018-05-08T13:41:29.565Z,1880.00
2018-05-08T13:42:08.383Z,1752.00
2018-05-08T13:43:08.386Z,1776.00
2018-05-08T13:44:15.088Z,1772.00
2018-05-08T13:45:08.321Z,2100.00
2018-05-08T13:46:10.455Z,1776.00
2018-05-08T13:47:08.285Z,1772.00
2018-05-08T13:48:20.018Z,1768.00
2018-05-08T13:49:08.261Z,1764.00
2018-05-08T13:50:30.366Z,1756.00
2018-05-08T13:51:08.208Z,1744.00
2018-05-08T13:52:29.340Z,1744.00
2018-05-08T13:53:08.164Z,1756.00
2018-05-08T13:54:13.069Z,1776.00
2018-05-08T13:55:08.277Z,1740.00
2018-05-08T13:56:19.032Z,1744.00
2018-05-08T13:57:08.088Z,1744.00
2018-05-08T13:58:08.186Z,1740.00
2018-05-08T13:59:08.060Z,1740.00
2018-05-08T14:00:08.091Z,1736.00
2018-05-08T14:01:07.996Z,1732.00
2018-05-08T14:02:19.976Z,1732.00
2018-05-08T14:03:07.989Z,1724.00
2018-05-08T14:04:10.202Z,1716.00
2018-05-08T14:05:07.921Z,1712.00
2018-05-08T14:06:10.867Z,1712.00
2018-05-08T14:07:07.889Z,1712.00
2018-05-08T14:08:07.894Z,1712.00
2018-05-08T14:09:07.968Z,1868.00
2018-05-08T14:10:07.822Z,1696.00
2018-05-08T14:11:18.437Z,1708.00
2018-05-08T14:12:07.781Z,1704.00
2018-05-08T14:13:18.454Z,1700.00
2018-05-08T14:14:07.735Z,1700.00
2018-05-08T14:15:07.725Z,1700.00
2018-05-08T14:16:07.705Z,1668.00
2018-05-08T14:17:07.680Z,1688.00
2018-05-08T14:18:07.671Z,1696.00
2018-05-08T14:19:07.719Z,1692.00
2018-05-08T14:20:07.636Z,1680.00
2018-05-08T14:21:07.621Z,1688.00
2018-05-08T14:22:07.610Z,1764.00
2018-05-08T14:23:07.581Z,1684.00
2018-05-08T14:24:07.550Z,1680.00
2018-05-08T14:25:07.542Z,1680.00
2018-05-08T14:26:07.509Z,2136.00
2018-05-08T14:27:07.494Z,1716.00
2018-05-08T14:28:07.477Z,1664.00
2018-05-08T14:29:07.490Z,1668.00
2018-05-08T14:30:07.487Z,1668.00
2018-05-08T14:31:07.417Z,1660.00
2018-05-08T14:32:07.388Z,1676.00
2018-05-08T14:33:08.442Z,1656.00
2018-05-08T14:34:07.356Z,1656.00
2018-05-08T14:35:07.343Z,1652.00
2018-05-08T14:36:07.321Z,1652.00
2018-05-08T14:37:07.540Z,1648.00
2018-05-08T14:38:07.294Z,1644.00
2018-05-08T14:39:07.263Z,1644.00
2018-05-08T14:40:07.237Z,1644.00
2018-05-08T14:41:07.236Z,1640.00
2018-05-08T14:42:07.268Z,1640.00
2018-05-08T14:43:07.201Z,1636.00
2018-05-08T14:44:07.282Z,1636.00
2018-05-08T14:45:07.162Z,1632.00
2018-05-08T14:46:07.147Z,1612.00
2018-05-08T14:47:07.120Z,1600.00
2018-05-08T14:48:07.113Z,1624.00
2018-05-08T14:49:07.200Z,1624.00
2018-05-08T14:50:07.084Z,1696.00
2018-05-08T14:51:07.063Z,1616.00
2018-05-08T14:52:07.012Z,1616.00
2018-05-08T14:53:06.999Z,1616.00
2018-05-08T14:54:06.984Z,1608.00
2018-05-08T14:55:07.617Z,1604.00
2018-05-08T14:56:06.966Z,1608.00
2018-05-08T14:57:06.913Z,1604.00
2018-05-08T14:58:06.906Z,1604.00
2018-05-08T14:59:06.875Z,1600.00
2018-05-08T15:00:07.284Z,1596.00
2018-05-08T15:01:06.865Z,1596.00
2018-05-08T15:02:06.816Z,1592.00
2018-05-08T15:03:06.800Z,1592.00
2018-05-08T15:04:06.786Z,1556.00
2018-05-08T15:05:06.766Z,1584.00
2018-05-08T15:06:06.822Z,1580.00
2018-05-08T15:07:06.722Z,1504.00
2018-05-08T15:08:07.849Z,1548.00
2018-05-08T15:09:06.696Z,1572.00
2018-05-08T15:10:06.765Z,1568.00
2018-05-08T15:11:06.657Z,1568.00
2018-05-08T15:12:06.675Z,1564.00
2018-05-08T15:13:06.677Z,1560.00
2018-05-08T15:14:06.594Z,1556.00
2018-05-08T15:15:06.570Z,1564.00
2018-05-08T15:16:06.565Z,1548.00
2018-05-08T15:17:06.539Z,1544.00
2018-05-08T15:18:06.588Z,1548.00
2018-05-08T15:19:06.488Z,1540.00
2018-05-08T15:20:06.614Z,1536.00
2018-05-08T15:21:06.465Z,1532.00